createdAt,value
2022-08-11T00:02:15.039Z,88.08
2022-08-11T00:05:23.842Z,88.04
2022-08-11T00:08:34.314Z,88.39
2022-08-11T00:11:48.019Z,89.11
2022-08-11T00:15:02.527Z,89.59
2022-08-11T00:18:12.697Z,89.33
2022-08-11T00:21:54.636Z,90.12
2022-08-11T00:24:57.201Z,90.28
2022-08-11T00:28:29.196Z,88.01
2022-08-11T00:31:44.601Z,89.30
2022-08-11T00:35:53.702Z,90.23
2022-08-11T00:38:31.041Z,91.91
2022-08-11T00:41:48.832Z,92.51
2022-08-11T00:45:15.894Z,93.16
2022-08-11T00:48:34.381Z,93.67
2022-08-11T00:52:05.755Z,95.04
2022-08-11T00:55:56.813Z,94.45
2022-08-11T00:59:45.236Z,95.45
2022-08-11T01:03:19.488Z,96.22
2022-08-11T01:07:07.663Z,96.78
2022-08-11T01:10:49.482Z,96.68
2022-08-11T01:14:52.866Z,95.26
2022-08-11T01:19:14.267Z,96.27
2022-08-11T01:23:34.935Z,96.54
2022-08-11T01:27:44.705Z,97.45
2022-08-11T01:31:57.046Z,98.03
2022-08-11T01:35:37.381Z,98.43
2022-08-11T01:39:46.025Z,98.03
2022-08-11T01:44:20.691Z,98.15
2022-08-11T01:47:54.643Z,97.65
2022-08-11T01:51:36.045Z,97.94
2022-08-11T01:55:05.927Z,98.38
2022-08-11T01:58:43.958Z,97.99
2022-08-11T02:02:44.622Z,98.96
2022-08-11T02:06:23.356Z,99.46
2022-08-11T02:10:23.234Z,100.00
2022-08-11T02:13:47.310Z,100.00
2022-08-11T02:17:18.906Z,100.00
2022-08-11T02:20:54.650Z,100.00
2022-08-11T02:24:14.933Z,100.00
2022-08-11T02:27:40.961Z,100.00
2022-08-11T02:32:15.587Z,100.00
2022-08-11T02:35:11.274Z,100.00
2022-08-11T02:38:31.073Z,100.00
2022-08-11T02:42:33.493Z,100.00
2022-08-11T02:45:55.524Z,100.00
2022-08-11T02:49:37.229Z,100.00
2022-08-11T02:53:00.268Z,100.00
2022-08-11T02:56:22.735Z,100.00
2022-08-11T02:59:54.492Z,100.00
2022-08-11T03:03:24.869Z,100.00
2022-08-11T03:06:47.567Z,99.96
2022-08-11T03:10:09.955Z,100.00
2022-08-11T03:13:47.099Z,100.00
2022-08-11T03:17:12.780Z,100.00
2022-08-11T03:20:38.368Z,100.00
2022-08-11T03:24:01.584Z,100.00
2022-08-11T03:27:25.369Z,100.00
2022-08-11T03:30:47.814Z,100.00
2022-08-11T03:34:06.852Z,100.00
2022-08-11T03:37:51.862Z,100.00
2022-08-11T03:42:01.557Z,100.00
2022-08-11T03:45:26.616Z,100.00
2022-08-11T03:48:55.737Z,100.00
2022-08-11T03:52:20.481Z,100.00
2022-08-11T03:56:19.146Z,100.00
2022-08-11T04:00:09.216Z,100.00
2022-08-11T04:04:08.844Z,100.00
2022-08-11T04:08:34.389Z,100.00
2022-08-11T04:12:17.318Z,100.00
2022-08-11T04:16:13.499Z,100.00
2022-08-11T04:19:53.983Z,100.00
2022-08-11T04:24:35.874Z,100.00
2022-08-11T04:27:37.588Z,100.00
2022-08-11T04:31:10.079Z,100.00
2022-08-11T04:34:41.767Z,100.00
2022-08-11T04:38:32.540Z,100.00
2022-08-11T04:42:53.375Z,100.00
2022-08-11T04:46:58.774Z,100.00
2022-08-11T04:50:45.297Z,100.00
2022-08-11T04:54:50.512Z,100.00
2022-08-11T04:58:34.638Z,100.00
2022-08-11T05:02:27.974Z,100.00
2022-08-11T05:06:28.257Z,100.00
2022-08-11T05:10:15.219Z,100.00
2022-08-11T05:14:05.104Z,100.00
2022-08-11T05:17:40.694Z,100.00
2022-08-11T05:21:11.442Z,100.00
2022-08-11T05:24:57.615Z,100.00
2022-08-11T05:28:30.113Z,100.00
2022-08-11T05:32:14.957Z,100.00
2022-08-11T05:36:01.449Z,100.00
2022-08-11T05:39:41.704Z,100.00
2022-08-11T05:43:14.107Z,100.00
2022-08-11T05:46:47.300Z,100.00
2022-08-11T05:50:15.480Z,100.00
2022-08-11T05:53:46.406Z,100.00
2022-08-11T05:57:03.216Z,100.00
2022-08-11T06:00:15.964Z,100.00
2022-08-11T06:03:30.856Z,98.06
2022-08-11T06:06:46.803Z,96.37
2022-08-11T06:10:03.202Z,92.17
2022-08-11T06:13:17.785Z,88.44
2022-08-11T06:16:29.738Z,86.63
2022-08-11T06:19:43.464Z,83.97
2022-08-11T06:23:01.937Z,78.00
2022-08-11T06:26:15.269Z,79.91
2022-08-11T06:29:37.784Z,77.43
2022-08-11T06:32:57.709Z,74.36
2022-08-11T06:36:15.049Z,68.29
2022-08-11T06:39:41.297Z,65.37
2022-08-11T06:43:03.519Z,62.32
2022-08-11T06:46:25.215Z,63.58
2022-08-11T06:50:02.979Z,58.43
2022-08-11T06:53:12.823Z,59.44
2022-08-11T06:56:44.727Z,62.02
2022-08-11T07:00:29.571Z,62.97
2022-08-11T07:03:58.517Z,65.59
2022-08-11T07:08:34.549Z,66.49
2022-08-11T07:12:19.738Z,64.31
2022-08-11T07:16:12.246Z,62.54
2022-08-11T07:19:39.479Z,61.41
2022-08-11T07:23:13.583Z,59.54
2022-08-11T07:26:44.545Z,58.92
2022-08-11T07:29:57.109Z,57.85
2022-08-11T07:33:08.507Z,56.68
2022-08-11T07:36:19.697Z,56.70
2022-08-11T07:39:36.025Z,56.42
2022-08-11T07:42:46.945Z,55.32
2022-08-11T07:46:15.613Z,54.34
2022-08-11T07:49:43.781Z,54.57
2022-08-11T07:52:53.880Z,52.53
2022-08-11T07:56:05.814Z,55.28
2022-08-11T08:00:03.793Z,58.54
2022-08-11T08:03:20.682Z,56.52
2022-08-11T08:06:52.018Z,55.33
2022-08-11T08:10:18.633Z,53.16
2022-08-11T08:13:44.825Z,56.48
2022-08-11T08:17:11.921Z,56.47
2022-08-11T08:20:24.819Z,56.56
2022-08-11T08:23:34.854Z,57.87
2022-08-11T08:27:00.571Z,54.80
2022-08-11T08:30:28.779Z,54.95
2022-08-11T08:33:41.908Z,54.11
2022-08-11T08:36:53.077Z,52.05
2022-08-11T08:40:03.698Z,51.98
2022-08-11T08:43:18.702Z,50.68
2022-08-11T08:46:35.931Z,51.05
2022-08-11T08:49:50.668Z,50.93
2022-08-11T08:53:06.364Z,50.85
2022-08-11T08:56:16.941Z,50.01
2022-08-11T08:59:47.423Z,49.85
2022-08-11T09:03:05.241Z,48.83
2022-08-11T09:06:27.134Z,48.58
2022-08-11T09:09:38.545Z,51.34
2022-08-11T09:12:49.841Z,50.30
2022-08-11T09:15:58.644Z,50.39
2022-08-11T09:19:09.134Z,50.29
2022-08-11T09:22:39.165Z,49.94
2022-08-11T09:26:09.610Z,51.09
2022-08-11T09:29:19.703Z,51.80
2022-08-11T09:32:31.504Z,51.38
2022-08-11T09:35:46.685Z,51.64
2022-08-11T09:39:13.090Z,51.77
2022-08-11T09:42:44.682Z,52.23
2022-08-11T09:45:55.799Z,50.68
2022-08-11T09:49:06.783Z,50.78
2022-08-11T09:52:17.073Z,50.86
2022-08-11T09:55:26.731Z,50.95
2022-08-11T09:58:42.524Z,51.28
2022-08-11T10:02:00.564Z,51.71
2022-08-11T10:05:27.782Z,52.21
2022-08-11T10:08:40.373Z,52.43
2022-08-11T10:11:58.037Z,49.97
2022-08-11T10:15:28.840Z,49.18
2022-08-11T10:18:49.703Z,49.80
2022-08-11T10:22:16.544Z,51.13
2022-08-11T10:25:42.407Z,50.94
2022-08-11T10:29:12.098Z,50.66
2022-08-11T10:32:57.339Z,49.36
2022-08-11T10:36:16.054Z,49.36
2022-08-11T10:39:28.255Z,49.80
2022-08-11T10:42:58.214Z,49.58
2022-08-11T10:46:30.212Z,50.60
2022-08-11T10:49:40.802Z,48.90
2022-08-11T10:53:10.745Z,48.88
2022-08-11T10:56:38.559Z,49.00
2022-08-11T10:59:48.248Z,49.50
2022-08-11T11:03:07.108Z,49.72
2022-08-11T11:06:37.026Z,48.35
2022-08-11T11:09:55.776Z,48.94
2022-08-11T11:13:23.008Z,49.32
2022-08-11T11:16:49.928Z,49.25
2022-08-11T11:27:46.636Z,48.78
2022-08-11T11:31:15.778Z,48.56
2022-08-11T11:34:52.911Z,48.42
2022-08-11T11:38:04.157Z,47.74
2022-08-11T11:41:29.038Z,48.18
2022-08-11T11:44:41.115Z,47.98
2022-08-11T11:47:53.703Z,48.52
2022-08-11T11:51:03.011Z,48.58
2022-08-11T11:54:12.477Z,48.28
2022-08-11T11:57:58.636Z,46.93
2022-08-11T12:01:20.073Z,46.87
2022-08-11T12:04:29.838Z,47.23
2022-08-11T12:08:10.565Z,45.52
2022-08-11T12:11:43.559Z,46.37
2022-08-11T12:14:54.385Z,46.16
2022-08-11T12:18:05.984Z,46.75
2022-08-11T12:21:17.298Z,46.14
2022-08-11T12:24:42.912Z,46.09
2022-08-11T12:27:54.304Z,46.30
2022-08-11T12:31:04.210Z,46.47
2022-08-11T12:34:17.958Z,46.04
2022-08-11T12:37:31.773Z,45.33
2022-08-11T12:41:15.723Z,45.13
2022-08-11T12:44:47.069Z,44.78
2022-08-11T12:49:00.696Z,45.96
2022-08-11T12:52:13.120Z,45.11
2022-08-11T12:55:41.004Z,45.47
2022-08-11T12:58:53.865Z,44.88
2022-08-11T13:02:20.853Z,45.89
2022-08-11T13:05:33.187Z,44.82
2022-08-11T13:08:51.139Z,44.23
2022-08-11T13:12:17.381Z,43.76
2022-08-11T13:15:27.062Z,43.93
2022-08-11T13:18:36.294Z,43.24
2022-08-11T13:21:45.686Z,43.96
2022-08-11T13:24:58.417Z,44.18
2022-08-11T13:28:07.829Z,43.54
2022-08-11T13:31:16.583Z,43.95
2022-08-11T13:34:28.029Z,43.85
2022-08-11T13:38:18.984Z,43.56
2022-08-11T13:41:27.406Z,43.69
2022-08-11T13:44:39.577Z,42.87
2022-08-11T13:47:50.059Z,43.71
2022-08-11T13:51:17.034Z,42.26
2022-08-11T13:54:31.302Z,42.17
2022-08-11T13:58:08.674Z,42.61
2022-08-11T14:02:03.100Z,42.29
2022-08-11T14:04:44.941Z,43.15
2022-08-11T14:07:58.701Z,42.23
2022-08-11T14:12:22.060Z,42.30
2022-08-11T14:15:08.192Z,43.14
2022-08-11T14:18:23.633Z,42.48
2022-08-11T14:21:55.468Z,42.36
2022-08-11T14:25:04.574Z,42.87
2022-08-11T14:28:30.645Z,42.81
2022-08-11T14:31:50.273Z,42.70
2022-08-11T14:35:00.024Z,41.87
2022-08-11T14:38:10.491Z,42.34
2022-08-11T14:41:37.797Z,41.94
2022-08-11T14:45:58.368Z,42.27
2022-08-11T14:49:01.269Z,41.27
2022-08-11T14:52:14.325Z,41.85
2022-08-11T14:55:42.777Z,42.46
2022-08-11T14:58:51.812Z,42.19
2022-08-11T15:02:21.597Z,41.17
2022-08-11T15:05:32.985Z,41.14
2022-08-11T15:08:57.527Z,40.74
2022-08-11T15:12:32.715Z,40.85
2022-08-11T15:15:57.534Z,41.32
2022-08-11T15:19:06.669Z,40.38
2022-08-11T15:22:34.074Z,40.66
2022-08-11T15:25:49.538Z,40.20
2022-08-11T15:29:15.637Z,40.54
2022-08-11T15:32:43.854Z,40.55
2022-08-11T15:36:20.218Z,40.88
2022-08-11T15:39:37.311Z,41.02
2022-08-11T15:43:12.866Z,41.37
2022-08-11T15:46:30.938Z,41.08
2022-08-11T15:50:10.795Z,42.06
2022-08-11T15:53:21.387Z,42.13
2022-08-11T15:56:37.240Z,41.64
2022-08-11T16:00:03.192Z,41.40
2022-08-11T16:04:05.567Z,41.69
2022-08-11T16:07:13.494Z,42.86
2022-08-11T16:10:22.791Z,41.96
2022-08-11T16:13:56.134Z,41.43
2022-08-11T16:17:08.091Z,40.38
2022-08-11T16:20:21.857Z,40.16
2022-08-11T16:23:30.348Z,41.11
2022-08-11T16:27:08.966Z,40.56
2022-08-11T16:30:16.054Z,40.52
2022-08-11T16:33:50.002Z,40.99
2022-08-11T16:37:14.977Z,41.19
2022-08-11T16:40:25.481Z,41.06
2022-08-11T16:43:56.470Z,41.80
2022-08-11T16:47:09.400Z,42.63
2022-08-11T16:50:21.073Z,43.80
2022-08-11T16:53:59.497Z,43.62
2022-08-11T16:57:24.352Z,43.71
2022-08-11T17:00:33.253Z,41.41
2022-08-11T17:04:16.718Z,38.43
2022-08-11T17:07:47.693Z,37.81
2022-08-11T17:11:18.910Z,37.31
2022-08-11T17:14:36.660Z,37.15
2022-08-11T17:17:46.341Z,39.26
2022-08-11T17:20:56.454Z,42.02
2022-08-11T17:24:09.756Z,43.49
2022-08-11T17:27:22.193Z,44.50
2022-08-11T17:30:47.105Z,45.17
2022-08-11T17:34:16.736Z,45.31
2022-08-11T17:37:29.529Z,46.10
2022-08-11T17:41:00.664Z,45.64
2022-08-11T17:44:27.119Z,46.03
2022-08-11T17:47:54.001Z,45.85
2022-08-11T17:51:07.315Z,46.73
2022-08-11T17:54:35.945Z,47.51
2022-08-11T17:58:03.133Z,47.03
2022-08-11T18:01:13.773Z,47.27
2022-08-11T18:04:24.409Z,47.28
2022-08-11T18:07:53.426Z,48.20
2022-08-11T18:12:00.097Z,48.14
2022-08-11T18:15:12.872Z,48.60
2022-08-11T18:18:38.887Z,49.13
2022-08-11T18:22:14.893Z,49.45
2022-08-11T18:25:46.846Z,50.29
2022-08-11T18:29:16.336Z,50.28
2022-08-11T18:32:49.913Z,50.15
2022-08-11T18:36:19.222Z,50.96
2022-08-11T18:39:56.132Z,50.85
2022-08-11T18:43:28.317Z,51.67
2022-08-11T18:47:00.431Z,51.40
2022-08-11T18:50:38.797Z,51.50
2022-08-11T18:54:11.024Z,51.43
2022-08-11T18:57:49.628Z,51.56
2022-08-11T19:01:24.595Z,52.81
2022-08-11T19:04:53.192Z,52.90
2022-08-11T19:08:21.917Z,52.65
2022-08-11T19:11:50.857Z,53.02
2022-08-11T19:15:19.442Z,54.03
2022-08-11T19:18:48.924Z,53.98
2022-08-11T19:22:19.573Z,53.87
2022-08-11T19:25:49.733Z,54.63
2022-08-11T19:30:11.272Z,55.85
2022-08-11T19:33:04.639Z,55.28
2022-08-11T19:36:33.590Z,55.60
2022-08-11T19:40:02.474Z,56.08
2022-08-11T19:43:31.626Z,57.01
2022-08-11T19:47:00.838Z,56.67
2022-08-11T19:50:34.231Z,57.99
2022-08-11T19:54:06.161Z,57.36
2022-08-11T19:57:39.617Z,58.05
2022-08-11T20:01:06.952Z,58.95
2022-08-11T20:04:32.563Z,59.03
2022-08-11T20:07:59.671Z,59.12
2022-08-11T20:11:27.340Z,59.37
2022-08-11T20:14:59.295Z,59.12
2022-08-11T20:18:29.313Z,59.12
2022-08-11T20:22:00.424Z,59.43
2022-08-11T20:25:29.656Z,58.48
2022-08-11T20:28:58.522Z,57.95
2022-08-11T20:32:26.471Z,57.84
2022-08-11T20:35:54.983Z,57.18
2022-08-11T20:39:22.875Z,55.75
2022-08-11T20:42:52.420Z,55.67
2022-08-11T20:46:20.584Z,56.47
2022-08-11T20:49:58.185Z,56.21
2022-08-11T20:53:26.655Z,56.16
2022-08-11T20:56:55.021Z,56.61
2022-08-11T21:00:39.574Z,56.05
2022-08-11T21:04:06.162Z,56.41
2022-08-11T21:07:37.000Z,56.90
2022-08-11T21:11:08.629Z,56.93
2022-08-11T21:14:35.339Z,56.94
2022-08-11T21:18:06.617Z,57.79
2022-08-11T21:21:45.933Z,57.21
2022-08-11T21:25:17.154Z,57.46
2022-08-11T21:28:44.073Z,58.29
2022-08-11T21:32:13.711Z,59.34
2022-08-11T21:35:45.394Z,59.73
2022-08-11T21:39:12.554Z,60.52
2022-08-11T21:42:41.566Z,61.18
2022-08-11T21:46:10.127Z,60.41
2022-08-11T21:49:39.391Z,61.51
2022-08-11T21:53:06.682Z,60.84
2022-08-11T21:56:35.047Z,61.06
2022-08-11T22:00:10.611Z,61.43
2022-08-11T22:03:50.216Z,60.73
2022-08-11T22:07:18.826Z,61.19
2022-08-11T22:10:45.533Z,61.88
2022-08-11T22:14:11.379Z,61.82
2022-08-11T22:17:38.481Z,61.58
2022-08-11T22:21:05.247Z,62.67
2022-08-11T22:24:32.181Z,63.16
2022-08-11T22:27:58.400Z,63.71
2022-08-11T22:31:26.993Z,64.67
2022-08-11T22:34:55.682Z,65.84
2022-08-11T22:38:23.741Z,67.60
2022-08-11T22:41:50.704Z,68.02
2022-08-11T22:45:17.564Z,69.08
2022-08-11T22:48:48.151Z,69.29
2022-08-11T22:52:18.152Z,69.76
2022-08-11T22:55:47.245Z,70.36
2022-08-11T22:59:14.269Z,70.71
2022-08-11T23:02:41.275Z,71.33
2022-08-11T23:06:07.912Z,71.77
2022-08-11T23:09:36.721Z,71.99
2022-08-11T23:13:02.839Z,72.21
2022-08-11T23:16:29.046Z,72.40
2022-08-11T23:20:04.790Z,73.06
2022-08-11T23:23:44.259Z,74.37
2022-08-11T23:27:12.742Z,75.01
2022-08-11T23:30:40.180Z,75.82
2022-08-11T23:34:44.845Z,76.10
2022-08-11T23:38:03.958Z,77.34
2022-08-11T23:41:34.463Z,78.43
2022-08-11T23:45:02.098Z,78.36
2022-08-11T23:48:33.231Z,78.82
2022-08-11T23:52:01.540Z,79.68
2022-08-11T23:55:28.648Z,80.28
2022-08-11T23:58:55.915Z,80.44
